sensor_id;sensor_type;location;lat;lon;timestamp;P1;durP1;ratioP1;P2;durP2;ratioP2
15573;SDS011;7888;46.748;8.102;2023-02-22T00:00:41;2.00;;;0.70;;
15573;SDS011;7888;46.748;8.102;2023-02-22T00:05:36;0.47;;;0.47;;
15573;SDS011;7888;46.748;8.102;2023-02-22T00:08:03;1.90;;;0.57;;
15573;SDS011;7888;46.748;8.102;2023-02-22T00:10:35;0.53;;;0.50;;
15573;SDS011;7888;46.748;8.102;2023-02-22T00:13:06;1.20;;;0.60;;
15573;SDS011;7888;46.748;8.102;2023-02-22T00:15:34;2.93;;;0.70;;
15573;SDS011;7888;46.748;8.102;2023-02-22T00:18:01;0.63;;;0.60;;
15573;SDS011;7888;46.748;8.102;2023-02-22T00:20:28;1.17;;;0.70;;
15573;SDS011;7888;46.748;8.102;2023-02-22T00:22:54;0.70;;;0.60;;
15573;SDS011;7888;46.748;8.102;2023-02-22T00:25:21;2.70;;;0.50;;
15573;SDS011;7888;46.748;8.102;2023-02-22T00:27:49;1.27;;;0.60;;
15573;SDS011;7888;46.748;8.102;2023-02-22T00:30:21;1.60;;;0.70;;
15573;SDS011;7888;46.748;8.102;2023-02-22T00:32:51;1.17;;;0.60;;
15573;SDS011;7888;46.748;8.102;2023-02-22T00:35:19;1.93;;;0.60;;
15573;SDS011;7888;46.748;8.102;2023-02-22T00:37:49;0.60;;;0.33;;
15573;SDS011;7888;46.748;8.102;2023-02-22T00:40:20;1.50;;;0.60;;
15573;SDS011;7888;46.748;8.102;2023-02-22T00:42:50;1.03;;;0.73;;
15573;SDS011;7888;46.748;8.102;2023-02-22T00:45:17;0.70;;;0.60;;
15573;SDS011;7888;46.748;8.102;2023-02-22T00:47:48;1.23;;;0.50;;
15573;SDS011;7888;46.748;8.102;2023-02-22T00:50:16;1.30;;;0.63;;
15573;SDS011;7888;46.748;8.102;2023-02-22T00:52:43;0.57;;;0.50;;
15573;SDS011;7888;46.748;8.102;2023-02-22T00:55:13;1.43;;;0.60;;
15573;SDS011;7888;46.748;8.102;2023-02-22T00:57:47;1.43;;;0.50;;
15573;SDS011;7888;46.748;8.102;2023-02-22T01:00:17;2.80;;;0.93;;
15573;SDS011;7888;46.748;8.102;2023-02-22T01:02:46;0.63;;;0.50;;
15573;SDS011;7888;46.748;8.102;2023-02-22T01:05:16;0.50;;;0.50;;
15573;SDS011;7888;46.748;8.102;2023-02-22T01:07:45;1.10;;;1.00;;
15573;SDS011;7888;46.748;8.102;2023-02-22T01:10:12;0.90;;;0.60;;
15573;SDS011;7888;46.748;8.102;2023-02-22T01:12:39;1.50;;;0.60;;
15573;SDS011;7888;46.748;8.102;2023-02-22T01:15:05;0.50;;;0.50;;
15573;SDS011;7888;46.748;8.102;2023-02-22T01:17:35;1.17;;;0.50;;
15573;SDS011;7888;46.748;8.102;2023-02-22T01:20:04;1.73;;;0.53;;
15573;SDS011;7888;46.748;8.102;2023-02-22T01:22:37;2.03;;;0.67;;
15573;SDS011;7888;46.748;8.102;2023-02-22T01:25:10;0.60;;;0.50;;
15573;SDS011;7888;46.748;8.102;2023-02-22T01:27:40;0.53;;;0.50;;
15573;SDS011;7888;46.748;8.102;2023-02-22T01:30:07;0.60;;;0.57;;
15573;SDS011;7888;46.748;8.102;2023-02-22T01:32:37;1.10;;;0.70;;
15573;SDS011;7888;46.748;8.102;2023-02-22T01:35:06;0.83;;;0.57;;
15573;SDS011;7888;46.748;8.102;2023-02-22T01:37:37;1.53;;;0.40;;
15573;SDS011;7888;46.748;8.102;2023-02-22T01:40:04;0.50;;;0.40;;
15573;SDS011;7888;46.748;8.102;2023-02-22T01:42:33;0.53;;;0.43;;
15573;SDS011;7888;46.748;8.102;2023-02-22T01:51:30;0.70;;;0.70;;
15573;SDS011;7888;46.748;8.102;2023-02-22T01:56:14;0.73;;;0.60;;
15573;SDS011;7888;46.748;8.102;2023-02-22T01:58:44;1.27;;;0.53;;
15573;SDS011;7888;46.748;8.102;2023-02-22T02:01:17;0.80;;;0.43;;
15573;SDS011;7888;46.748;8.102;2023-02-22T02:03:47;0.93;;;0.40;;
15573;SDS011;7888;46.748;8.102;2023-02-22T02:06:15;0.77;;;0.60;;
15573;SDS011;7888;46.748;8.102;2023-02-22T02:08:54;0.57;;;0.40;;
15573;SDS011;7888;46.748;8.102;2023-02-22T02:11:46;2.13;;;0.50;;
15573;SDS011;7888;46.748;8.102;2023-02-22T02:14:13;0.50;;;0.40;;
15573;SDS011;7888;46.748;8.102;2023-02-22T02:16:44;0.77;;;0.70;;
15573;SDS011;7888;46.748;8.102;2023-02-22T02:22:32;0.80;;;0.40;;
15573;SDS011;7888;46.748;8.102;2023-02-22T02:29:00;1.47;;;0.40;;
15573;SDS011;7888;46.748;8.102;2023-02-22T02:31:59;0.40;;;0.40;;
15573;SDS011;7888;46.748;8.102;2023-02-22T02:34:57;2.17;;;0.70;;
15573;SDS011;7888;46.748;8.102;2023-02-22T02:41:04;0.93;;;0.40;;
15573;SDS011;7888;46.748;8.102;2023-02-22T02:46:25;1.30;;;0.67;;
15573;SDS011;7888;46.748;8.102;2023-02-22T02:49:13;0.60;;;0.60;;
15573;SDS011;7888;46.748;8.102;2023-02-22T02:51:47;1.47;;;0.77;;
15573;SDS011;7888;46.748;8.102;2023-02-22T02:54:18;0.70;;;0.50;;
15573;SDS011;7888;46.748;8.102;2023-02-22T02:56:45;1.83;;;0.77;;
15573;SDS011;7888;46.748;8.102;2023-02-22T03:02:05;0.90;;;0.80;;
15573;SDS011;7888;46.748;8.102;2023-02-22T03:05:09;1.57;;;0.60;;
15573;SDS011;7888;46.748;8.102;2023-02-22T03:08:42;0.60;;;0.50;;
15573;SDS011;7888;46.748;8.102;2023-02-22T03:11:21;0.70;;;0.60;;
15573;SDS011;7888;46.748;8.102;2023-02-22T03:19:34;1.73;;;0.70;;
15573;SDS011;7888;46.748;8.102;2023-02-22T03:22:25;2.57;;;0.80;;
15573;SDS011;7888;46.748;8.102;2023-02-22T03:25:06;1.30;;;0.73;;
15573;SDS011;7888;46.748;8.102;2023-02-22T03:27:44;0.73;;;0.60;;
15573;SDS011;7888;46.748;8.102;2023-02-22T03:30:24;1.30;;;0.63;;
15573;SDS011;7888;46.748;8.102;2023-02-22T03:33:01;0.77;;;0.67;;
15573;SDS011;7888;46.748;8.102;2023-02-22T03:35:36;2.20;;;0.80;;
15573;SDS011;7888;46.748;8.102;2023-02-22T03:38:13;1.60;;;0.70;;
15573;SDS011;7888;46.748;8.102;2023-02-22T03:40:44;0.97;;;0.70;;
15573;SDS011;7888;46.748;8.102;2023-02-22T03:43:20;1.63;;;0.80;;
15573;SDS011;7888;46.748;8.102;2023-02-22T03:45:51;1.70;;;0.87;;
15573;SDS011;7888;46.748;8.102;2023-02-22T03:51:13;0.70;;;0.60;;
15573;SDS011;7888;46.748;8.102;2023-02-22T03:53:41;0.60;;;0.60;;
15573;SDS011;7888;46.748;8.102;2023-02-22T03:56:12;0.90;;;0.57;;
15573;SDS011;7888;46.748;8.102;2023-02-22T03:58:59;0.60;;;0.60;;
15573;SDS011;7888;46.748;8.102;2023-02-22T04:01:34;1.60;;;0.80;;
15573;SDS011;7888;46.748;8.102;2023-02-22T04:04:00;0.70;;;0.53;;
15573;SDS011;7888;46.748;8.102;2023-02-22T04:06:27;1.47;;;0.53;;
15573;SDS011;7888;46.748;8.102;2023-02-22T04:08:53;0.93;;;0.63;;
15573;SDS011;7888;46.748;8.102;2023-02-22T04:11:19;0.53;;;0.40;;
15573;SDS011;7888;46.748;8.102;2023-02-22T04:13:45;2.07;;;0.60;;
15573;SDS011;7888;46.748;8.102;2023-02-22T04:16:11;1.67;;;0.80;;
15573;SDS011;7888;46.748;8.102;2023-02-22T04:18:37;0.80;;;0.70;;
15573;SDS011;7888;46.748;8.102;2023-02-22T04:21:02;2.00;;;0.60;;
15573;SDS011;7888;46.748;8.102;2023-02-22T04:23:28;1.40;;;0.50;;
15573;SDS011;7888;46.748;8.102;2023-02-22T04:25:55;0.90;;;0.60;;
15573;SDS011;7888;46.748;8.102;2023-02-22T04:28:20;0.90;;;0.70;;
15573;SDS011;7888;46.748;8.102;2023-02-22T04:30:46;1.50;;;0.70;;
15573;SDS011;7888;46.748;8.102;2023-02-22T04:33:13;0.60;;;0.60;;
15573;SDS011;7888;46.748;8.102;2023-02-22T04:35:40;1.00;;;0.60;;
15573;SDS011;7888;46.748;8.102;2023-02-22T04:38:06;0.57;;;0.50;;
15573;SDS011;7888;46.748;8.102;2023-02-22T04:40:33;0.87;;;0.40;;
15573;SDS011;7888;46.748;8.102;2023-02-22T04:42:59;2.40;;;0.67;;
15573;SDS011;7888;46.748;8.102;2023-02-22T04:45:25;1.80;;;0.73;;
15573;SDS011;7888;46.748;8.102;2023-02-22T04:47:51;1.07;;;0.57;;
15573;SDS011;7888;46.748;8.102;2023-02-22T04:50:17;0.40;;;0.30;;
15573;SDS011;7888;46.748;8.102;2023-02-22T04:52:43;0.90;;;0.47;;
15573;SDS011;7888;46.748;8.102;2023-02-22T04:55:09;1.43;;;0.77;;
15573;SDS011;7888;46.748;8.102;2023-02-22T04:57:36;12.27;;;7.00;;
15573;SDS011;7888;46.748;8.102;2023-02-22T05:00:03;19.80;;;12.17;;
15573;SDS011;7888;46.748;8.102;2023-02-22T05:02:30;18.77;;;9.77;;
15573;SDS011;7888;46.748;8.102;2023-02-22T05:04:55;13.93;;;7.63;;
15573;SDS011;7888;46.748;8.102;2023-02-22T05:07:21;14.97;;;9.27;;
15573;SDS011;7888;46.748;8.102;2023-02-22T05:09:47;11.53;;;7.43;;
15573;SDS011;7888;46.748;8.102;2023-02-22T05:12:13;8.97;;;5.80;;
15573;SDS011;7888;46.748;8.102;2023-02-22T05:14:39;9.57;;;6.03;;
15573;SDS011;7888;46.748;8.102;2023-02-22T05:17:05;12.47;;;8.47;;
15573;SDS011;7888;46.748;8.102;2023-02-22T05:19:31;12.43;;;9.77;;
15573;SDS011;7888;46.748;8.102;2023-02-22T05:21:57;12.90;;;9.47;;
15573;SDS011;7888;46.748;8.102;2023-02-22T05:24:24;14.60;;;10.70;;
15573;SDS011;7888;46.748;8.102;2023-02-22T05:26:50;17.63;;;11.00;;
15573;SDS011;7888;46.748;8.102;2023-02-22T05:29:17;11.20;;;9.07;;
15573;SDS011;7888;46.748;8.102;2023-02-22T05:31:44;8.30;;;5.97;;
15573;SDS011;7888;46.748;8.102;2023-02-22T05:34:10;5.33;;;3.20;;
15573;SDS011;7888;46.748;8.102;2023-02-22T05:36:36;2.60;;;2.03;;
15573;SDS011;7888;46.748;8.102;2023-02-22T05:39:02;2.47;;;1.20;;
15573;SDS011;7888;46.748;8.102;2023-02-22T05:41:29;1.20;;;0.87;;
15573;SDS011;7888;46.748;8.102;2023-02-22T05:43:55;0.77;;;0.70;;
15573;SDS011;7888;46.748;8.102;2023-02-22T05:46:20;2.17;;;0.67;;
15573;SDS011;7888;46.748;8.102;2023-02-22T05:48:46;0.53;;;0.43;;
15573;SDS011;7888;46.748;8.102;2023-02-22T05:51:12;2.20;;;0.83;;
15573;SDS011;7888;46.748;8.102;2023-02-22T05:53:38;1.23;;;0.67;;
15573;SDS011;7888;46.748;8.102;2023-02-22T05:56:04;1.33;;;0.60;;
15573;SDS011;7888;46.748;8.102;2023-02-22T05:58:30;2.10;;;0.87;;
15573;SDS011;7888;46.748;8.102;2023-02-22T06:00:56;2.50;;;0.83;;
15573;SDS011;7888;46.748;8.102;2023-02-22T06:03:22;0.60;;;0.50;;
15573;SDS011;7888;46.748;8.102;2023-02-22T06:05:47;0.80;;;0.53;;
15573;SDS011;7888;46.748;8.102;2023-02-22T06:08:13;0.90;;;0.50;;
15573;SDS011;7888;46.748;8.102;2023-02-22T06:10:39;1.00;;;0.70;;
15573;SDS011;7888;46.748;8.102;2023-02-22T06:13:05;1.13;;;0.77;;
15573;SDS011;7888;46.748;8.102;2023-02-22T06:15:31;1.87;;;0.63;;
15573;SDS011;7888;46.748;8.102;2023-02-22T06:17:57;0.60;;;0.50;;
15573;SDS011;7888;46.748;8.102;2023-02-22T06:20:25;1.40;;;0.90;;
15573;SDS011;7888;46.748;8.102;2023-02-22T06:22:53;2.03;;;0.90;;
15573;SDS011;7888;46.748;8.102;2023-02-22T06:25:23;1.33;;;0.93;;
15573;SDS011;7888;46.748;8.102;2023-02-22T06:27:52;3.50;;;1.17;;
15573;SDS011;7888;46.748;8.102;2023-02-22T06:32:48;1.07;;;0.70;;
15573;SDS011;7888;46.748;8.102;2023-02-22T06:35:14;1.20;;;0.60;;
15573;SDS011;7888;46.748;8.102;2023-02-22T06:37:41;2.13;;;0.87;;
15573;SDS011;7888;46.748;8.102;2023-02-22T06:40:07;1.30;;;1.20;;
15573;SDS011;7888;46.748;8.102;2023-02-22T06:42:35;3.60;;;1.40;;
15573;SDS011;7888;46.748;8.102;2023-02-22T06:45:02;7.30;;;5.43;;
15573;SDS011;7888;46.748;8.102;2023-02-22T06:47:28;19.07;;;10.90;;
15573;SDS011;7888;46.748;8.102;2023-02-22T06:49:55;14.13;;;8.67;;
15573;SDS011;7888;46.748;8.102;2023-02-22T06:52:22;13.60;;;8.57;;
15573;SDS011;7888;46.748;8.102;2023-02-22T06:54:49;10.33;;;6.87;;
15573;SDS011;7888;46.748;8.102;2023-02-22T06:57:16;9.27;;;4.90;;
15573;SDS011;7888;46.748;8.102;2023-02-22T06:59:42;5.43;;;2.90;;
15573;SDS011;7888;46.748;8.102;2023-02-22T07:02:09;2.97;;;1.80;;
15573;SDS011;7888;46.748;8.102;2023-02-22T07:04:37;1.60;;;1.00;;
15573;SDS011;7888;46.748;8.102;2023-02-22T07:07:03;1.93;;;1.10;;
15573;SDS011;7888;46.748;8.102;2023-02-22T07:09:30;1.17;;;0.80;;
15573;SDS011;7888;46.748;8.102;2023-02-22T07:11:56;1.67;;;0.80;;
15573;SDS011;7888;46.748;8.102;2023-02-22T07:14:21;1.97;;;1.20;;
15573;SDS011;7888;46.748;8.102;2023-02-22T08:29:27;1.90;;;1.20;;
15573;SDS011;7888;46.748;8.102;2023-02-22T08:31:57;3.80;;;1.10;;
15573;SDS011;7888;46.748;8.102;2023-02-22T08:34:24;1.43;;;1.10;;
15573;SDS011;7888;46.748;8.102;2023-02-22T08:36:51;2.67;;;1.30;;
15573;SDS011;7888;46.748;8.102;2023-02-22T08:39:17;2.33;;;1.00;;
15573;SDS011;7888;46.748;8.102;2023-02-22T08:41:43;1.30;;;1.20;;
15573;SDS011;7888;46.748;8.102;2023-02-22T08:44:11;2.53;;;1.20;;
15573;SDS011;7888;46.748;8.102;2023-02-22T08:46:37;3.80;;;1.60;;
15573;SDS011;7888;46.748;8.102;2023-02-22T08:49:03;4.40;;;1.70;;
15573;SDS011;7888;46.748;8.102;2023-02-22T08:51:33;2.87;;;1.90;;
15573;SDS011;7888;46.748;8.102;2023-02-22T08:54:01;3.73;;;1.50;;
15573;SDS011;7888;46.748;8.102;2023-02-22T08:56:28;2.77;;;1.20;;
15573;SDS011;7888;46.748;8.102;2023-02-22T08:58:54;3.87;;;1.50;;
15573;SDS011;7888;46.748;8.102;2023-02-22T09:01:21;5.20;;;1.80;;
15573;SDS011;7888;46.748;8.102;2023-02-22T09:03:49;2.67;;;1.50;;
15573;SDS011;7888;46.748;8.102;2023-02-22T09:06:16;1.47;;;1.10;;
15573;SDS011;7888;46.748;8.102;2023-02-22T09:08:42;2.30;;;0.93;;
15573;SDS011;7888;46.748;8.102;2023-02-22T09:11:08;5.27;;;2.10;;
15573;SDS011;7888;46.748;8.102;2023-02-22T09:13:34;3.23;;;2.03;;
15573;SDS011;7888;46.748;8.102;2023-02-22T09:16:00;3.00;;;1.90;;
15573;SDS011;7888;46.748;8.102;2023-02-22T09:18:26;2.17;;;1.50;;
15573;SDS011;7888;46.748;8.102;2023-02-22T09:20:53;4.57;;;1.60;;
15573;SDS011;7888;46.748;8.102;2023-02-22T09:23:19;2.80;;;1.70;;
15573;SDS011;7888;46.748;8.102;2023-02-22T09:25:49;4.10;;;1.93;;
15573;SDS011;7888;46.748;8.102;2023-02-22T09:28:15;4.27;;;2.47;;
15573;SDS011;7888;46.748;8.102;2023-02-22T09:30:41;3.93;;;2.80;;
15573;SDS011;7888;46.748;8.102;2023-02-22T09:33:11;4.63;;;2.27;;
15573;SDS011;7888;46.748;8.102;2023-02-22T09:35:40;3.43;;;2.50;;
15573;SDS011;7888;46.748;8.102;2023-02-22T09:38:10;3.43;;;2.33;;
15573;SDS011;7888;46.748;8.102;2023-02-22T09:40:41;4.33;;;2.77;;
15573;SDS011;7888;46.748;8.102;2023-02-22T09:51:33;6.53;;;3.43;;
15573;SDS011;7888;46.748;8.102;2023-02-22T09:57:17;6.40;;;3.50;;
15573;SDS011;7888;46.748;8.102;2023-02-22T10:00:16;7.67;;;2.40;;
15573;SDS011;7888;46.748;8.102;2023-02-22T10:06:21;2.13;;;1.50;;
15573;SDS011;7888;46.748;8.102;2023-02-22T10:08:53;2.47;;;1.40;;
15573;SDS011;7888;46.748;8.102;2023-02-22T10:19:54;1.90;;;1.03;;
15573;SDS011;7888;46.748;8.102;2023-02-22T10:22:53;1.20;;;0.77;;
15573;SDS011;7888;46.748;8.102;2023-02-22T10:25:44;1.17;;;0.80;;
15573;SDS011;7888;46.748;8.102;2023-02-22T10:28:28;2.83;;;0.83;;
15573;SDS011;7888;46.748;8.102;2023-02-22T10:31:04;1.40;;;0.90;;
15573;SDS011;7888;46.748;8.102;2023-02-22T10:33:39;2.17;;;1.00;;
15573;SDS011;7888;46.748;8.102;2023-02-22T10:36:19;0.90;;;0.67;;
15573;SDS011;7888;46.748;8.102;2023-02-22T10:39:00;2.33;;;0.80;;
15573;SDS011;7888;46.748;8.102;2023-02-22T10:41:55;3.43;;;0.93;;
15573;SDS011;7888;46.748;8.102;2023-02-22T10:44:33;3.07;;;1.40;;
15573;SDS011;7888;46.748;8.102;2023-02-22T10:47:00;4.00;;;1.10;;
15573;SDS011;7888;46.748;8.102;2023-02-22T10:52:23;2.40;;;1.00;;
15573;SDS011;7888;46.748;8.102;2023-02-22T10:54:54;3.77;;;1.00;;
15573;SDS011;7888;46.748;8.102;2023-02-22T10:57:26;2.93;;;1.00;;
15573;SDS011;7888;46.748;8.102;2023-02-22T10:59:58;1.00;;;0.70;;
15573;SDS011;7888;46.748;8.102;2023-02-22T11:05:43;2.33;;;0.80;;
15573;SDS011;7888;46.748;8.102;2023-02-22T11:10:45;1.37;;;0.70;;
15573;SDS011;7888;46.748;8.102;2023-02-22T11:13:16;4.80;;;1.10;;
15573;SDS011;7888;46.748;8.102;2023-02-22T11:15:58;1.67;;;0.93;;
15573;SDS011;7888;46.748;8.102;2023-02-22T11:18:41;4.10;;;1.00;;
15573;SDS011;7888;46.748;8.102;2023-02-22T11:21:09;2.07;;;1.03;;
15573;SDS011;7888;46.748;8.102;2023-02-22T11:23:38;1.90;;;0.90;;
15573;SDS011;7888;46.748;8.102;2023-02-22T11:26:08;1.40;;;1.07;;
15573;SDS011;7888;46.748;8.102;2023-02-22T11:28:41;1.40;;;1.10;;
15573;SDS011;7888;46.748;8.102;2023-02-22T11:33:47;2.17;;;1.20;;
15573;SDS011;7888;46.748;8.102;2023-02-22T11:39:08;3.73;;;1.20;;
15573;SDS011;7888;46.748;8.102;2023-02-22T11:41:56;1.93;;;1.00;;
15573;SDS011;7888;46.748;8.102;2023-02-22T11:44:29;1.13;;;1.03;;
15573;SDS011;7888;46.748;8.102;2023-02-22T11:47:00;1.17;;;0.73;;
15573;SDS011;7888;46.748;8.102;2023-02-22T11:49:43;2.90;;;1.13;;
15573;SDS011;7888;46.748;8.102;2023-02-22T11:52:14;1.00;;;0.90;;
15573;SDS011;7888;46.748;8.102;2023-02-22T11:58:05;2.70;;;0.90;;
15573;SDS011;7888;46.748;8.102;2023-02-22T12:04:19;1.50;;;0.77;;
15573;SDS011;7888;46.748;8.102;2023-02-22T12:21:15;1.53;;;1.03;;
15573;SDS011;7888;46.748;8.102;2023-02-22T12:23:49;4.80;;;1.60;;
15573;SDS011;7888;46.748;8.102;2023-02-22T12:26:38;2.70;;;1.07;;
15573;SDS011;7888;46.748;8.102;2023-02-22T12:29:25;1.10;;;0.70;;
15573;SDS011;7888;46.748;8.102;2023-02-22T12:32:11;2.20;;;1.30;;
15573;SDS011;7888;46.748;8.102;2023-02-22T12:35:11;2.17;;;1.20;;
15573;SDS011;7888;46.748;8.102;2023-02-22T12:43:34;2.60;;;2.05;;
15573;SDS011;7888;46.748;8.102;2023-02-22T12:46:37;1.53;;;1.43;;
15573;SDS011;7888;46.748;8.102;2023-02-22T12:54:53;2.60;;;2.20;;
15573;SDS011;7888;46.748;8.102;2023-02-22T13:00:40;2.33;;;2.07;;
15573;SDS011;7888;46.748;8.102;2023-02-22T13:11:51;4.03;;;3.38;;
15573;SDS011;7888;46.748;8.102;2023-02-22T13:17:06;3.55;;;2.85;;
15573;SDS011;7888;46.748;8.102;2023-02-22T13:28:15;6.53;;;3.80;;
15573;SDS011;7888;46.748;8.102;2023-02-22T13:53:57;7.07;;;3.20;;
15573;SDS011;7888;46.748;8.102;2023-02-22T13:56:42;6.03;;;2.90;;
15573;SDS011;7888;46.748;8.102;2023-02-22T13:59:26;5.00;;;3.30;;
15573;SDS011;7888;46.748;8.102;2023-02-22T14:01:59;5.63;;;3.20;;
15573;SDS011;7888;46.748;8.102;2023-02-22T14:06:54;4.13;;;3.15;;
15573;SDS011;7888;46.748;8.102;2023-02-22T14:09:56;3.47;;;3.05;;
15573;SDS011;7888;46.748;8.102;2023-02-22T14:17:38;3.55;;;3.22;;
15573;SDS011;7888;46.748;8.102;2023-02-22T14:22:43;3.47;;;2.90;;
15573;SDS011;7888;46.748;8.102;2023-02-22T14:28:06;4.00;;;3.20;;
15573;SDS011;7888;46.748;8.102;2023-02-22T14:31:15;5.93;;;2.97;;
15573;SDS011;7888;46.748;8.102;2023-02-22T14:34:04;3.25;;;2.95;;
15573;SDS011;7888;46.748;8.102;2023-02-22T14:42:17;3.70;;;3.30;;
15573;SDS011;7888;46.748;8.102;2023-02-22T14:50:27;2.85;;;2.65;;
15573;SDS011;7888;46.748;8.102;2023-02-22T14:53:26;3.88;;;3.17;;
15573;SDS011;7888;46.748;8.102;2023-02-22T14:56:15;3.22;;;2.83;;
15573;SDS011;7888;46.748;8.102;2023-02-22T14:58:50;5.00;;;3.10;;
15573;SDS011;7888;46.748;8.102;2023-02-22T15:02:11;3.90;;;2.75;;
15573;SDS011;7888;46.748;8.102;2023-02-22T15:04:39;4.90;;;3.60;;
15573;SDS011;7888;46.748;8.102;2023-02-22T15:07:25;3.97;;;3.40;;
15573;SDS011;7888;46.748;8.102;2023-02-22T15:10:04;4.17;;;3.37;;
15573;SDS011;7888;46.748;8.102;2023-02-22T15:12:51;3.80;;;3.40;;
15573;SDS011;7888;46.748;8.102;2023-02-22T15:15:39;4.63;;;3.40;;
15573;SDS011;7888;46.748;8.102;2023-02-22T15:18:20;4.63;;;3.40;;
15573;SDS011;7888;46.748;8.102;2023-02-22T15:21:14;5.43;;;3.27;;
15573;SDS011;7888;46.748;8.102;2023-02-22T15:26:20;4.78;;;3.60;;
15573;SDS011;7888;46.748;8.102;2023-02-22T15:28:59;9.63;;;3.27;;
15573;SDS011;7888;46.748;8.102;2023-02-22T15:31:30;4.77;;;3.50;;
15573;SDS011;7888;46.748;8.102;2023-02-22T15:34:14;3.97;;;2.93;;
15573;SDS011;7888;46.748;8.102;2023-02-22T15:36:57;4.77;;;3.37;;
15573;SDS011;7888;46.748;8.102;2023-02-22T15:39:49;4.47;;;3.13;;
15573;SDS011;7888;46.748;8.102;2023-02-22T15:42:23;3.23;;;2.87;;
15573;SDS011;7888;46.748;8.102;2023-02-22T15:44:51;4.07;;;3.43;;
15573;SDS011;7888;46.748;8.102;2023-02-22T15:47:23;4.57;;;3.10;;
15573;SDS011;7888;46.748;8.102;2023-02-22T15:55:17;4.47;;;3.53;;
15573;SDS011;7888;46.748;8.102;2023-02-22T15:57:47;5.57;;;3.70;;
15573;SDS011;7888;46.748;8.102;2023-02-22T16:00:22;4.27;;;3.77;;
15573;SDS011;7888;46.748;8.102;2023-02-22T16:02:57;4.27;;;3.77;;
15573;SDS011;7888;46.748;8.102;2023-02-22T16:05:28;4.97;;;4.07;;
15573;SDS011;7888;46.748;8.102;2023-02-22T16:08:02;5.20;;;3.60;;
15573;SDS011;7888;46.748;8.102;2023-02-22T16:10:33;6.63;;;4.00;;
15573;SDS011;7888;46.748;8.102;2023-02-22T16:13:02;5.80;;;4.00;;
15573;SDS011;7888;46.748;8.102;2023-02-22T16:15:31;6.57;;;3.83;;
15573;SDS011;7888;46.748;8.102;2023-02-22T16:18:15;4.63;;;3.73;;
15573;SDS011;7888;46.748;8.102;2023-02-22T16:21:08;4.50;;;3.40;;
15573;SDS011;7888;46.748;8.102;2023-02-22T16:23:43;4.73;;;3.87;;
15573;SDS011;7888;46.748;8.102;2023-02-22T16:26:19;4.93;;;3.90;;
15573;SDS011;7888;46.748;8.102;2023-02-22T16:28:58;5.87;;;4.63;;
15573;SDS011;7888;46.748;8.102;2023-02-22T16:31:25;4.70;;;4.13;;
15573;SDS011;7888;46.748;8.102;2023-02-22T16:33:57;5.60;;;4.03;;
15573;SDS011;7888;46.748;8.102;2023-02-22T16:36:41;4.90;;;4.20;;
15573;SDS011;7888;46.748;8.102;2023-02-22T16:39:16;4.40;;;4.00;;
15573;SDS011;7888;46.748;8.102;2023-02-22T16:41:51;5.50;;;4.00;;
15573;SDS011;7888;46.748;8.102;2023-02-22T16:44:20;4.80;;;4.10;;
15573;SDS011;7888;46.748;8.102;2023-02-22T16:46:51;5.23;;;3.90;;
15573;SDS011;7888;46.748;8.102;2023-02-22T16:49:19;4.97;;;4.13;;
15573;SDS011;7888;46.748;8.102;2023-02-22T16:51:50;6.27;;;4.23;;
15573;SDS011;7888;46.748;8.102;2023-02-22T16:54:29;5.73;;;3.90;;
15573;SDS011;7888;46.748;8.102;2023-02-22T16:57:01;5.03;;;4.40;;
15573;SDS011;7888;46.748;8.102;2023-02-22T16:59:31;5.10;;;4.10;;
15573;SDS011;7888;46.748;8.102;2023-02-22T17:02:03;8.17;;;4.30;;
15573;SDS011;7888;46.748;8.102;2023-02-22T17:04:31;6.33;;;3.90;;
15573;SDS011;7888;46.748;8.102;2023-02-22T17:06:58;5.03;;;4.00;;
15573;SDS011;7888;46.748;8.102;2023-02-22T17:09:26;5.80;;;4.37;;
15573;SDS011;7888;46.748;8.102;2023-02-22T17:11:52;5.40;;;4.40;;
15573;SDS011;7888;46.748;8.102;2023-02-22T17:14:20;4.50;;;4.10;;
15573;SDS011;7888;46.748;8.102;2023-02-22T17:16:57;7.70;;;4.83;;
15573;SDS011;7888;46.748;8.102;2023-02-22T17:19:24;7.27;;;5.77;;
15573;SDS011;7888;46.748;8.102;2023-02-22T17:21:50;8.20;;;7.10;;
15573;SDS011;7888;46.748;8.102;2023-02-22T17:24:17;7.17;;;5.63;;
15573;SDS011;7888;46.748;8.102;2023-02-22T17:26:53;6.93;;;5.43;;
15573;SDS011;7888;46.748;8.102;2023-02-22T17:29:21;6.43;;;5.23;;
15573;SDS011;7888;46.748;8.102;2023-02-22T17:31:48;5.23;;;4.73;;
15573;SDS011;7888;46.748;8.102;2023-02-22T17:34:16;6.60;;;5.30;;
15573;SDS011;7888;46.748;8.102;2023-02-22T17:36:41;4.73;;;4.30;;
15573;SDS011;7888;46.748;8.102;2023-02-22T17:39:07;6.07;;;4.27;;
15573;SDS011;7888;46.748;8.102;2023-02-22T17:41:34;5.87;;;4.40;;
15573;SDS011;7888;46.748;8.102;2023-02-22T17:44:01;8.33;;;5.27;;
15573;SDS011;7888;46.748;8.102;2023-02-22T17:46:27;5.90;;;5.30;;
15573;SDS011;7888;46.748;8.102;2023-02-22T17:48:53;9.00;;;5.10;;
15573;SDS011;7888;46.748;8.102;2023-02-22T17:51:20;6.87;;;5.63;;
15573;SDS011;7888;46.748;8.102;2023-02-22T17:53:49;8.80;;;6.57;;
15573;SDS011;7888;46.748;8.102;2023-02-22T17:56:16;8.77;;;5.83;;
15573;SDS011;7888;46.748;8.102;2023-02-22T17:58:44;8.27;;;5.80;;
15573;SDS011;7888;46.748;8.102;2023-02-22T18:01:19;6.90;;;6.07;;
15573;SDS011;7888;46.748;8.102;2023-02-22T18:03:53;7.40;;;5.97;;
15573;SDS011;7888;46.748;8.102;2023-02-22T18:06:24;7.70;;;6.13;;
15573;SDS011;7888;46.748;8.102;2023-02-22T18:08:54;8.90;;;6.47;;
15573;SDS011;7888;46.748;8.102;2023-02-22T18:11:24;9.07;;;6.43;;
15573;SDS011;7888;46.748;8.102;2023-02-22T18:13:53;8.03;;;6.07;;
15573;SDS011;7888;46.748;8.102;2023-02-22T18:16:21;6.60;;;5.70;;
15573;SDS011;7888;46.748;8.102;2023-02-22T18:18:52;6.40;;;5.70;;
15573;SDS011;7888;46.748;8.102;2023-02-22T18:21:19;9.87;;;5.37;;
15573;SDS011;7888;46.748;8.102;2023-02-22T18:23:46;6.30;;;5.70;;
15573;SDS011;7888;46.748;8.102;2023-02-22T18:26:13;6.93;;;4.93;;
15573;SDS011;7888;46.748;8.102;2023-02-22T18:28:41;5.80;;;5.20;;
15573;SDS011;7888;46.748;8.102;2023-02-22T18:31:10;6.13;;;5.47;;
15573;SDS011;7888;46.748;8.102;2023-02-22T18:33:38;7.03;;;5.50;;
15573;SDS011;7888;46.748;8.102;2023-02-22T18:36:07;6.53;;;5.47;;
15573;SDS011;7888;46.748;8.102;2023-02-22T18:38:35;6.67;;;5.53;;
15573;SDS011;7888;46.748;8.102;2023-02-22T18:41:07;7.33;;;5.60;;
15573;SDS011;7888;46.748;8.102;2023-02-22T18:43:37;6.57;;;4.97;;
15573;SDS011;7888;46.748;8.102;2023-02-22T18:46:04;6.13;;;5.33;;
15573;SDS011;7888;46.748;8.102;2023-02-22T18:48:38;7.50;;;5.63;;
15573;SDS011;7888;46.748;8.102;2023-02-22T18:51:05;6.93;;;5.60;;
15573;SDS011;7888;46.748;8.102;2023-02-22T18:53:35;7.13;;;5.63;;
15573;SDS011;7888;46.748;8.102;2023-02-22T18:56:06;6.43;;;5.17;;
15573;SDS011;7888;46.748;8.102;2023-02-22T18:58:34;8.23;;;5.67;;
15573;SDS011;7888;46.748;8.102;2023-02-22T19:01:02;7.17;;;5.27;;
15573;SDS011;7888;46.748;8.102;2023-02-22T19:03:30;7.53;;;5.47;;
15573;SDS011;7888;46.748;8.102;2023-02-22T19:06:00;6.27;;;4.80;;
15573;SDS011;7888;46.748;8.102;2023-02-22T19:08:27;7.60;;;5.47;;
15573;SDS011;7888;46.748;8.102;2023-02-22T19:11:01;7.73;;;5.63;;
15573;SDS011;7888;46.748;8.102;2023-02-22T19:13:29;6.50;;;5.37;;
15573;SDS011;7888;46.748;8.102;2023-02-22T19:15:56;6.97;;;5.07;;
15573;SDS011;7888;46.748;8.102;2023-02-22T19:18:21;6.60;;;4.97;;
15573;SDS011;7888;46.748;8.102;2023-02-22T19:20:55;6.93;;;5.07;;
15573;SDS011;7888;46.748;8.102;2023-02-22T19:23:23;6.83;;;5.37;;
15573;SDS011;7888;46.748;8.102;2023-02-22T19:25:49;8.67;;;5.93;;
15573;SDS011;7888;46.748;8.102;2023-02-22T19:28:15;6.37;;;5.13;;
15573;SDS011;7888;46.748;8.102;2023-02-22T19:30:42;6.67;;;5.20;;
15573;SDS011;7888;46.748;8.102;2023-02-22T19:33:08;6.33;;;5.37;;
15573;SDS011;7888;46.748;8.102;2023-02-22T19:35:34;7.13;;;5.40;;
15573;SDS011;7888;46.748;8.102;2023-02-22T19:38:02;6.00;;;5.40;;
15573;SDS011;7888;46.748;8.102;2023-02-22T19:40:29;6.43;;;5.27;;
15573;SDS011;7888;46.748;8.102;2023-02-22T19:42:55;5.80;;;5.20;;
15573;SDS011;7888;46.748;8.102;2023-02-22T19:45:22;5.87;;;5.27;;
15573;SDS011;7888;46.748;8.102;2023-02-22T19:47:53;6.27;;;5.50;;